createdAt,value
2023-05-18T00:00:19.736Z,35.27
2023-05-18T00:01:19.672Z,35.26
2023-05-18T00:02:19.730Z,35.23
2023-05-18T00:03:19.799Z,35.25
2023-05-18T00:04:19.718Z,35.24
2023-05-18T00:05:19.714Z,35.20
2023-05-18T00:06:19.722Z,35.17
2023-05-18T00:07:19.722Z,35.13
2023-05-18T00:08:19.727Z,35.18
2023-05-18T00:09:19.755Z,35.19
2023-05-18T00:10:19.783Z,35.18
2023-05-18T00:11:19.760Z,35.11
2023-05-18T00:12:19.779Z,35.17
2023-05-18T00:13:19.802Z,35.08
2023-05-18T00:14:19.849Z,35.12
2023-05-18T00:15:19.795Z,35.13
2023-05-18T00:16:19.838Z,35.13
2023-05-18T00:17:19.813Z,35.15
2023-05-18T00:18:19.852Z,35.12
2023-05-18T00:19:19.920Z,35.17
2023-05-18T00:20:19.848Z,35.15
2023-05-18T00:21:19.867Z,35.16
2023-05-18T00:22:19.871Z,35.15
2023-05-18T00:23:19.875Z,35.19
2023-05-18T00:24:19.904Z,35.19
2023-05-18T00:25:19.877Z,35.20
2023-05-18T00:26:19.904Z,35.21
2023-05-18T00:27:19.895Z,35.17
2023-05-18T00:28:19.899Z,35.16
2023-05-18T00:29:19.916Z,35.20
2023-05-18T00:30:19.935Z,35.17
2023-05-18T00:31:19.958Z,35.19
2023-05-18T00:32:19.933Z,35.19
2023-05-18T00:33:19.949Z,35.16
2023-05-18T00:34:19.954Z,35.20
2023-05-18T00:35:19.958Z,35.25
2023-05-18T00:36:19.971Z,35.17
2023-05-18T00:37:19.975Z,35.22
2023-05-18T00:38:20.010Z,35.19
2023-05-18T00:39:20.063Z,35.19
2023-05-18T00:40:20.030Z,35.17
2023-05-18T00:41:20.028Z,35.19
2023-05-18T00:42:20.059Z,35.22
2023-05-18T00:43:20.040Z,35.21
2023-05-18T00:44:20.138Z,35.21
2023-05-18T00:45:20.055Z,35.20
2023-05-18T00:46:20.085Z,35.21
2023-05-18T00:47:20.086Z,35.22
2023-05-18T00:48:20.144Z,35.19
2023-05-18T00:49:20.156Z,35.19
2023-05-18T00:50:20.135Z,35.20
2023-05-18T00:51:20.137Z,35.21
2023-05-18T00:52:20.148Z,35.17
2023-05-18T00:53:20.145Z,35.17
2023-05-18T00:54:20.176Z,35.26
2023-05-18T00:55:20.165Z,35.19
2023-05-18T00:56:20.168Z,35.20
2023-05-18T00:57:20.203Z,35.21
2023-05-18T00:58:20.179Z,35.22
2023-05-18T00:59:20.259Z,35.20
2023-05-18T01:00:20.220Z,35.20
2023-05-18T01:01:20.263Z,35.21
2023-05-18T01:02:20.299Z,35.16
2023-05-18T01:03:20.306Z,35.21
2023-05-18T01:04:20.276Z,35.21
2023-05-18T01:05:20.354Z,35.18
2023-05-18T01:06:20.281Z,35.18
2023-05-18T01:07:20.319Z,35.20
2023-05-18T01:08:20.324Z,35.22
2023-05-18T01:09:20.334Z,35.21
2023-05-18T01:10:20.366Z,35.21
2023-05-18T01:11:20.400Z,35.16
2023-05-18T01:12:20.359Z,35.25
2023-05-18T01:13:20.391Z,35.22
2023-05-18T01:14:20.388Z,35.21
2023-05-18T01:15:20.431Z,35.22
2023-05-18T01:16:20.431Z,35.19
2023-05-18T01:17:20.658Z,35.21
2023-05-18T01:18:20.462Z,35.22
2023-05-18T01:19:20.511Z,35.19
2023-05-18T01:20:20.556Z,35.25
2023-05-18T01:21:20.503Z,35.23
2023-05-18T01:22:20.525Z,35.22
2023-05-18T01:23:20.549Z,35.20
2023-05-18T01:24:20.544Z,35.21
2023-05-18T01:25:20.556Z,35.22
2023-05-18T01:26:20.557Z,35.22
2023-05-18T01:27:20.589Z,35.20
2023-05-18T01:28:20.607Z,35.21
2023-05-18T01:29:20.604Z,35.24
2023-05-18T01:30:20.627Z,35.19
2023-05-18T01:31:20.711Z,35.21
2023-05-18T01:32:20.645Z,35.21
2023-05-18T01:33:20.690Z,35.24
2023-05-18T01:34:20.690Z,35.20
2023-05-18T01:35:20.718Z,35.19
2023-05-18T01:36:20.724Z,35.23
2023-05-18T01:37:20.735Z,35.23
2023-05-18T01:38:20.777Z,35.22
2023-05-18T01:39:20.770Z,35.15
2023-05-18T01:40:20.797Z,35.20
2023-05-18T01:41:20.808Z,35.18
2023-05-18T01:42:20.842Z,35.21
2023-05-18T01:43:20.863Z,35.22
2023-05-18T01:44:20.881Z,35.19
2023-05-18T01:45:20.974Z,35.21
2023-05-18T01:46:20.955Z,35.21
2023-05-18T01:47:20.925Z,35.22
2023-05-18T01:48:20.921Z,35.21
2023-05-18T01:49:20.933Z,35.23
2023-05-18T01:50:20.960Z,35.23
2023-05-18T01:51:20.963Z,35.22
2023-05-18T01:52:21.002Z,35.19
2023-05-18T01:53:21.009Z,35.22
2023-05-18T01:54:21.019Z,35.22
2023-05-18T01:55:21.052Z,35.23
2023-05-18T01:56:21.056Z,35.22
2023-05-18T01:57:21.076Z,35.19
2023-05-18T01:58:21.090Z,35.21
2023-05-18T01:59:21.110Z,35.24
2023-05-18T02:00:21.134Z,35.18
2023-05-18T02:01:21.234Z,35.22
2023-05-18T02:02:21.264Z,35.23
2023-05-18T02:03:21.239Z,35.17
2023-05-18T02:04:21.201Z,35.18
2023-05-18T02:05:21.255Z,35.20
2023-05-18T02:06:21.259Z,35.22
2023-05-18T02:07:21.277Z,35.20
2023-05-18T02:08:21.310Z,35.19
2023-05-18T02:09:21.298Z,35.19
2023-05-18T02:10:21.327Z,35.20
2023-05-18T02:11:21.343Z,35.20
2023-05-18T02:12:21.368Z,35.17
2023-05-18T02:13:21.415Z,35.20
2023-05-18T02:14:21.417Z,35.19
2023-05-18T02:15:21.437Z,35.20
2023-05-18T02:16:21.495Z,35.15
2023-05-18T02:17:21.485Z,35.17
2023-05-18T02:18:21.492Z,35.17
2023-05-18T02:19:21.716Z,35.15
2023-05-18T02:20:21.551Z,35.12
2023-05-18T02:21:21.549Z,35.14
2023-05-18T02:22:21.581Z,35.12
2023-05-18T02:23:21.599Z,35.12
2023-05-18T02:24:21.620Z,35.14
2023-05-18T02:25:21.640Z,35.12
2023-05-18T02:26:21.666Z,35.14
2023-05-18T02:27:21.668Z,35.11
2023-05-18T02:28:21.688Z,35.09
2023-05-18T02:29:21.717Z,35.10
2023-05-18T02:30:21.775Z,35.08
2023-05-18T02:31:21.819Z,35.05
2023-05-18T02:32:21.811Z,35.05
2023-05-18T02:33:21.813Z,35.02
2023-05-18T02:34:21.835Z,35.07
2023-05-18T02:35:21.873Z,35.07
2023-05-18T02:36:21.896Z,35.06
2023-05-18T02:37:21.921Z,35.01
2023-05-18T02:38:21.928Z,34.99
2023-05-18T02:39:21.947Z,35.03
2023-05-18T02:40:22.007Z,35.06
2023-05-18T02:41:22.017Z,35.01
2023-05-18T02:42:22.028Z,35.07
2023-05-18T02:43:22.077Z,35.01
2023-05-18T02:44:22.108Z,35.00
2023-05-18T02:45:22.363Z,34.97
2023-05-18T02:46:22.307Z,35.03
2023-05-18T02:47:22.194Z,34.99
2023-05-18T02:48:22.211Z,35.04
2023-05-18T02:49:22.237Z,35.03
2023-05-18T02:50:22.256Z,35.01
2023-05-18T02:51:22.278Z,34.99
2023-05-18T02:52:22.308Z,34.97
2023-05-18T02:53:22.353Z,35.00
2023-05-18T02:54:22.363Z,35.01
2023-05-18T02:55:22.415Z,34.98
2023-05-18T02:56:22.430Z,34.98
2023-05-18T02:57:22.460Z,35.02
2023-05-18T02:58:22.490Z,34.95
2023-05-18T02:59:22.510Z,35.01
2023-05-18T03:00:22.540Z,34.99
2023-05-18T03:01:22.698Z,35.00
2023-05-18T03:02:22.619Z,34.97
2023-05-18T03:03:22.968Z,35.00
2023-05-18T03:04:22.649Z,35.02
2023-05-18T03:05:22.776Z,34.98
2023-05-18T03:06:22.707Z,35.00
2023-05-18T03:07:22.721Z,34.99
2023-05-18T03:08:22.817Z,34.97
2023-05-18T03:09:22.800Z,35.00
2023-05-18T03:10:22.810Z,35.00
2023-05-18T03:11:22.868Z,34.98
2023-05-18T03:12:22.882Z,34.97
2023-05-18T03:13:22.909Z,34.99
2023-05-18T03:14:22.927Z,34.99
2023-05-18T03:15:22.973Z,34.97
2023-05-18T03:16:23.007Z,34.96
2023-05-18T03:17:23.025Z,34.96
2023-05-18T03:18:23.028Z,34.99
2023-05-18T03:19:23.094Z,34.97
2023-05-18T03:20:23.094Z,34.95
2023-05-18T03:21:23.125Z,34.95
2023-05-18T03:22:23.164Z,35.00
2023-05-18T03:23:23.164Z,34.95
2023-05-18T03:24:23.202Z,34.98
2023-05-18T03:25:23.230Z,34.93
2023-05-18T03:26:23.267Z,34.86
2023-05-18T03:27:23.299Z,34.87
2023-05-18T03:28:23.326Z,34.87
2023-05-18T03:29:23.370Z,34.84
2023-05-18T03:30:23.395Z,34.87
2023-05-18T03:31:23.496Z,34.88
2023-05-18T03:32:23.467Z,34.86
2023-05-18T03:33:23.500Z,34.87
2023-05-18T03:34:23.527Z,34.83
2023-05-18T03:35:23.551Z,34.87
2023-05-18T03:36:23.570Z,34.81
2023-05-18T03:37:23.603Z,34.86
2023-05-18T03:38:23.642Z,34.86
2023-05-18T03:39:23.676Z,34.87
2023-05-18T03:40:23.705Z,34.83
2023-05-18T03:41:23.738Z,34.84
2023-05-18T03:42:23.773Z,34.87
2023-05-18T03:43:23.809Z,34.79
2023-05-18T03:44:23.850Z,34.86
2023-05-18T03:45:23.880Z,34.86
2023-05-18T03:46:23.946Z,34.84
2023-05-18T03:47:23.933Z,34.86
2023-05-18T03:48:23.984Z,34.84
2023-05-18T03:49:24.017Z,34.81
2023-05-18T03:50:24.049Z,34.86
2023-05-18T03:51:24.065Z,34.86
2023-05-18T03:52:24.113Z,34.85
2023-05-18T03:53:24.144Z,34.85
2023-05-18T03:54:24.150Z,34.84
2023-05-18T03:55:24.210Z,34.84
2023-05-18T03:56:24.237Z,34.86
2023-05-18T03:57:24.270Z,34.81
2023-05-18T03:58:24.290Z,34.84
2023-05-18T03:59:24.329Z,34.84
2023-05-18T04:00:24.345Z,34.87
2023-05-18T04:01:24.401Z,34.83
2023-05-18T04:02:24.559Z,34.87
2023-05-18T04:03:24.531Z,34.82
2023-05-18T04:04:24.554Z,34.81
2023-05-18T04:05:24.544Z,34.84
2023-05-18T04:06:24.537Z,34.87
2023-05-18T04:07:24.566Z,34.86
2023-05-18T04:08:24.604Z,34.87
2023-05-18T04:09:24.626Z,34.81
2023-05-18T04:10:24.671Z,34.81
2023-05-18T04:11:24.694Z,34.84
2023-05-18T04:12:24.726Z,34.81
2023-05-18T04:13:24.789Z,34.83
2023-05-18T04:14:24.833Z,34.86
2023-05-18T04:15:24.834Z,34.83
2023-05-18T04:16:24.902Z,34.84
2023-05-18T04:17:24.911Z,34.88
2023-05-18T04:18:24.943Z,34.84
2023-05-18T04:19:25.075Z,34.84
2023-05-18T04:20:25.009Z,34.84
2023-05-18T04:21:25.047Z,34.88
2023-05-18T04:22:25.075Z,34.88
2023-05-18T04:23:25.112Z,34.91
2023-05-18T04:24:25.154Z,34.90
2023-05-18T04:25:25.281Z,34.86
2023-05-18T04:26:25.223Z,34.88
2023-05-18T04:27:25.272Z,34.86
2023-05-18T04:28:25.294Z,34.90
2023-05-18T04:29:25.312Z,34.82
2023-05-18T04:30:25.367Z,34.86
2023-05-18T04:31:25.401Z,34.84
2023-05-18T04:32:25.428Z,34.86
2023-05-18T04:33:25.445Z,34.82
2023-05-18T04:34:25.490Z,34.81
2023-05-18T04:35:25.525Z,34.87
2023-05-18T04:36:25.526Z,34.86
2023-05-18T04:37:25.564Z,34.87
2023-05-18T04:38:25.614Z,34.88
2023-05-18T04:39:25.621Z,34.84
2023-05-18T04:40:25.673Z,34.86
2023-05-18T04:41:25.744Z,34.82
2023-05-18T04:42:25.756Z,34.83
2023-05-18T04:43:25.777Z,34.77
2023-05-18T04:44:25.798Z,34.82
2023-05-18T04:45:25.854Z,34.82
2023-05-18T04:46:25.944Z,34.83
2023-05-18T04:47:25.954Z,34.84
2023-05-18T04:48:25.949Z,34.84
2023-05-18T04:49:26.007Z,34.86
2023-05-18T04:50:26.081Z,34.84
2023-05-18T04:51:26.068Z,34.83
2023-05-18T04:52:26.085Z,34.83
2023-05-18T04:53:26.125Z,34.83
2023-05-18T04:54:26.182Z,34.84
2023-05-18T04:55:26.649Z,34.86
2023-05-18T04:56:26.229Z,34.78
2023-05-18T04:57:26.275Z,34.82
2023-05-18T04:58:26.639Z,34.79
2023-05-18T04:59:26.334Z,34.86
2023-05-18T05:00:26.642Z,34.79
2023-05-18T05:01:26.433Z,34.82
2023-05-18T05:02:26.509Z,34.82
2023-05-18T05:03:26.625Z,34.81
2023-05-18T05:04:26.513Z,34.81
2023-05-18T05:05:26.543Z,34.84
2023-05-18T05:06:26.577Z,34.83
2023-05-18T05:07:26.633Z,34.83
2023-05-18T05:08:26.661Z,34.83
2023-05-18T05:09:26.686Z,34.83
2023-05-18T05:10:26.710Z,34.85
2023-05-18T05:11:26.728Z,34.79
2023-05-18T05:12:26.761Z,34.83
2023-05-18T05:13:26.793Z,34.81
2023-05-18T05:14:26.887Z,34.81
2023-05-18T05:15:26.871Z,34.83
2023-05-18T05:16:26.967Z,34.76
2023-05-18T05:17:26.980Z,34.76
2023-05-18T05:18:26.961Z,34.78
2023-05-18T05:19:27.110Z,34.78
2023-05-18T05:20:27.029Z,34.76
2023-05-18T05:21:27.046Z,34.79
2023-05-18T05:22:27.143Z,34.79
2023-05-18T05:23:27.130Z,34.78
2023-05-18T05:24:27.145Z,34.75
2023-05-18T05:25:27.172Z,34.76
2023-05-18T05:26:27.200Z,34.73
2023-05-18T05:27:27.220Z,34.77
2023-05-18T05:28:27.255Z,34.73
2023-05-18T05:29:27.273Z,34.76
2023-05-18T05:30:27.303Z,34.73
2023-05-18T05:31:27.359Z,34.77
2023-05-18T05:32:27.371Z,34.72
2023-05-18T05:33:27.379Z,34.76
2023-05-18T05:34:27.404Z,34.74
2023-05-18T05:35:27.494Z,34.73
2023-05-18T05:36:27.490Z,34.71
2023-05-18T05:37:27.523Z,34.72
2023-05-18T05:38:27.512Z,34.72
2023-05-18T05:39:27.550Z,34.68
2023-05-18T05:40:27.570Z,34.71
2023-05-18T05:41:27.597Z,34.71
2023-05-18T05:42:27.610Z,34.72
2023-05-18T05:43:27.644Z,34.72
2023-05-18T05:44:27.677Z,34.68
2023-05-18T05:45:27.711Z,34.73
2023-05-18T05:46:27.778Z,34.72
2023-05-18T05:47:27.773Z,34.72
2023-05-18T05:48:27.777Z,34.70
2023-05-18T05:49:27.808Z,34.71
2023-05-18T05:50:27.841Z,34.72
2023-05-18T05:51:27.863Z,34.68
2023-05-18T05:52:27.884Z,34.72
2023-05-18T05:53:27.911Z,34.73
2023-05-18T05:54:27.946Z,34.70
2023-05-18T05:55:27.973Z,34.71
2023-05-18T05:56:27.996Z,34.70
2023-05-18T05:57:28.033Z,34.68
2023-05-18T05:58:28.045Z,34.67
2023-05-18T05:59:28.066Z,34.70
2023-05-18T06:00:28.091Z,34.72
2023-05-18T06:01:28.117Z,34.67
2023-05-18T06:02:28.214Z,34.71
2023-05-18T06:03:28.249Z,34.67
2023-05-18T06:04:28.218Z,34.66
2023-05-18T06:05:28.368Z,34.68
2023-05-18T06:06:28.247Z,34.67
2023-05-18T06:07:28.261Z,34.70
2023-05-18T06:08:28.282Z,34.70
2023-05-18T06:09:28.329Z,34.70
2023-05-18T06:10:28.363Z,34.70
2023-05-18T06:11:28.349Z,34.72
2023-05-18T06:12:28.366Z,34.67
2023-05-18T06:13:28.401Z,34.66
2023-05-18T06:14:28.497Z,34.66
2023-05-18T06:15:28.575Z,34.66
2023-05-18T06:16:28.498Z,34.67
2023-05-18T06:17:28.592Z,34.66
2023-05-18T06:18:28.515Z,34.66
2023-05-18T06:19:28.517Z,34.64
2023-05-18T06:20:28.555Z,34.64
2023-05-18T06:21:28.573Z,34.68
2023-05-18T06:22:28.581Z,34.67
2023-05-18T06:23:28.609Z,34.69
2023-05-18T06:24:28.644Z,34.66
2023-05-18T06:25:28.732Z,34.63
2023-05-18T06:26:28.681Z,34.66
2023-05-18T06:27:28.692Z,34.66
2023-05-18T06:28:28.708Z,34.66
2023-05-18T06:29:28.746Z,34.65
2023-05-18T06:30:28.779Z,34.64
2023-05-18T06:31:30.298Z,34.66
2023-05-18T06:32:28.872Z,34.68
2023-05-18T06:33:28.859Z,34.67
2023-05-18T06:34:28.870Z,34.66
2023-05-18T06:35:29.014Z,34.65
2023-05-18T06:36:28.928Z,34.62
2023-05-18T06:37:28.944Z,34.66
2023-05-18T06:38:28.955Z,34.64
2023-05-18T06:39:28.976Z,34.63
2023-05-18T06:40:29.036Z,34.63
2023-05-18T06:41:29.019Z,34.60
2023-05-18T06:42:29.023Z,34.57
2023-05-18T06:43:29.055Z,34.62
2023-05-18T06:44:29.063Z,34.62
2023-05-18T06:45:29.628Z,34.60
2023-05-18T06:46:29.146Z,34.61
2023-05-18T06:47:29.146Z,34.59
2023-05-18T06:48:29.136Z,34.60
2023-05-18T06:49:29.188Z,34.54
2023-05-18T06:50:29.295Z,34.65
2023-05-18T06:51:29.194Z,34.60
2023-05-18T06:52:29.203Z,34.61
2023-05-18T06:53:29.212Z,34.61
2023-05-18T06:54:29.242Z,34.61
2023-05-18T06:55:29.533Z,34.55
2023-05-18T06:56:29.280Z,34.59
2023-05-18T06:57:29.333Z,34.57
2023-05-18T06:58:29.314Z,34.53
2023-05-18T06:59:29.317Z,34.57
2023-05-18T07:00:29.373Z,34.59
2023-05-18T07:01:29.403Z,34.59
2023-05-18T07:02:29.403Z,34.57
2023-05-18T07:03:29.419Z,34.53
2023-05-18T07:04:29.420Z,34.57
2023-05-18T07:05:29.772Z,34.57
2023-05-18T07:06:29.432Z,34.58
2023-05-18T07:07:29.462Z,34.53
2023-05-18T07:08:29.458Z,34.58
2023-05-18T07:09:29.472Z,34.57
2023-05-18T07:10:29.492Z,34.55
2023-05-18T07:11:29.889Z,34.55
2023-05-18T07:12:29.505Z,34.52
2023-05-18T07:13:29.596Z,34.56
2023-05-18T07:14:29.530Z,34.56
2023-05-18T07:15:29.995Z,34.59
2023-05-18T07:16:29.773Z,34.51
2023-05-18T07:17:29.599Z,34.54
2023-05-18T07:18:29.620Z,34.54
2023-05-18T07:19:29.677Z,34.55
2023-05-18T07:20:29.649Z,34.56
2023-05-18T07:21:29.747Z,34.55
2023-05-18T07:22:29.642Z,34.52
2023-05-18T07:23:29.648Z,34.52
2023-05-18T07:24:29.656Z,34.50
2023-05-18T07:25:29.945Z,34.51
2023-05-18T07:26:29.690Z,34.55
2023-05-18T07:27:29.739Z,34.50
2023-05-18T07:28:29.732Z,34.50
2023-05-18T07:29:29.743Z,34.50
2023-05-18T07:30:29.775Z,34.50
2023-05-18T07:31:29.847Z,34.51
2023-05-18T07:32:29.876Z,34.51
2023-05-18T07:33:29.816Z,34.50
2023-05-18T07:34:29.817Z,34.54
2023-05-18T07:35:30.071Z,34.53
2023-05-18T07:36:29.836Z,34.51
2023-05-18T07:37:29.857Z,34.51
2023-05-18T07:38:29.871Z,34.47
2023-05-18T07:39:29.911Z,34.49
2023-05-18T07:40:29.914Z,34.49
2023-05-18T07:41:29.897Z,34.48
2023-05-18T07:42:29.930Z,34.49
2023-05-18T07:43:29.925Z,34.47
2023-05-18T07:44:29.936Z,34.49
2023-05-18T07:45:30.083Z,34.46
2023-05-18T07:46:29.981Z,34.43
2023-05-18T07:47:29.981Z,34.47
2023-05-18T07:48:29.966Z,34.47
2023-05-18T07:49:29.949Z,34.47
2023-05-18T07:50:29.976Z,34.45
2023-05-18T07:51:29.991Z,34.41
2023-05-18T07:52:29.982Z,34.47
2023-05-18T07:53:30.010Z,34.48
2023-05-18T07:54:29.988Z,34.40
2023-05-18T07:55:30.276Z,34.43
2023-05-18T07:56:30.071Z,34.40
2023-05-18T07:57:30.062Z,34.44
2023-05-18T07:58:30.036Z,34.36
2023-05-18T07:59:30.053Z,34.42
2023-05-18T08:00:30.069Z,34.40
2023-05-18T08:01:30.082Z,34.38
2023-05-18T08:02:32.121Z,34.40
2023-05-18T08:03:30.154Z,34.36
2023-05-18T08:04:30.234Z,34.37
2023-05-18T08:05:30.313Z,34.32
2023-05-18T08:06:30.037Z,34.34
2023-05-18T08:07:30.062Z,34.33
2023-05-18T08:08:30.012Z,34.34
2023-05-18T08:09:30.061Z,34.33
2023-05-18T08:10:30.043Z,34.32
2023-05-18T08:11:30.008Z,34.39
2023-05-18T08:12:30.029Z,34.34
2023-05-18T08:13:31.977Z,34.34
2023-05-18T08:14:29.977Z,34.32
2023-05-18T08:15:30.237Z,34.30
2023-05-18T08:16:30.053Z,34.37
2023-05-18T08:17:30.018Z,34.36
2023-05-18T08:18:29.952Z,34.36
2023-05-18T08:19:30.041Z,34.30
2023-05-18T08:20:29.954Z,34.29
2023-05-18T08:21:29.938Z,34.32
2023-05-18T08:22:29.926Z,34.30
2023-05-18T08:23:29.934Z,34.34
2023-05-18T08:24:29.914Z,34.32
2023-05-18T08:25:30.286Z,34.32
2023-05-18T08:26:29.930Z,34.25
2023-05-18T08:27:30.022Z,34.28
2023-05-18T08:28:29.883Z,34.28
2023-05-18T08:29:29.870Z,34.29
2023-05-18T08:30:29.922Z,34.28
2023-05-18T08:31:29.896Z,34.24
2023-05-18T08:32:29.948Z,34.28
2023-05-18T08:33:29.860Z,34.24
2023-05-18T08:34:29.843Z,34.25
2023-05-18T08:35:30.072Z,34.27
2023-05-18T08:36:29.827Z,34.32
2023-05-18T08:37:29.841Z,34.26
2023-05-18T08:38:29.817Z,34.22
2023-05-18T08:39:29.820Z,34.23
2023-05-18T08:40:29.817Z,34.21
2023-05-18T08:41:29.794Z,34.28
2023-05-18T08:42:38.007Z,34.23
2023-05-18T08:43:30.809Z,34.27
2023-05-18T08:44:29.792Z,34.22
2023-05-18T08:45:29.928Z,34.22
2023-05-18T08:46:29.760Z,34.24
2023-05-18T08:47:29.822Z,34.25
2023-05-18T08:48:29.852Z,34.24
2023-05-18T08:49:29.759Z,34.24
2023-05-18T08:51:29.789Z,34.17
2023-05-18T08:52:29.709Z,34.20
2023-05-18T08:53:29.720Z,34.19
2023-05-18T08:54:29.695Z,34.18
2023-05-18T08:55:29.876Z,34.16
2023-05-18T08:56:29.712Z,34.17
2023-05-18T08:57:29.702Z,34.19
2023-05-18T08:58:29.679Z,34.16
2023-05-18T08:59:29.673Z,34.19
2023-05-18T09:00:29.989Z,34.17
2023-05-18T09:01:29.860Z,34.15
2023-05-18T09:02:29.711Z,34.17
2023-05-18T09:03:29.654Z,34.16
2023-05-18T09:04:29.679Z,34.14
2023-05-18T09:05:30.073Z,34.14
2023-05-18T09:06:29.649Z,34.18
2023-05-18T09:07:29.637Z,34.13
2023-05-18T09:08:29.646Z,34.10
2023-05-18T09:09:29.624Z,34.16
2023-05-18T09:10:29.620Z,34.13
2023-05-18T09:11:29.609Z,34.14
2023-05-18T09:12:29.611Z,34.16
2023-05-18T09:13:29.589Z,34.14
2023-05-18T09:14:29.591Z,34.13
2023-05-18T09:15:29.855Z,34.14
2023-05-18T09:16:29.648Z,34.12
2023-05-18T09:17:29.583Z,34.15
2023-05-18T09:18:29.575Z,34.11
2023-05-18T09:19:29.618Z,34.13
2023-05-18T09:20:29.566Z,34.11
2023-05-18T09:21:29.539Z,34.15
2023-05-18T09:22:29.554Z,34.11
2023-05-18T09:23:29.516Z,34.10
2023-05-18T09:24:29.555Z,34.11
2023-05-18T09:25:29.659Z,34.13
2023-05-18T09:26:29.523Z,34.13
2023-05-18T09:27:29.551Z,34.15
2023-05-18T09:28:29.544Z,34.18
2023-05-18T09:29:31.105Z,34.19
2023-05-18T09:30:29.590Z,34.19
2023-05-18T09:31:29.584Z,34.17
2023-05-18T09:32:29.483Z,34.16
2023-05-18T09:33:29.545Z,34.19
2023-05-18T09:34:29.473Z,34.16
2023-05-18T09:35:29.704Z,34.14
2023-05-18T09:36:29.427Z,34.19
2023-05-18T09:37:29.428Z,34.17
2023-05-18T09:38:29.425Z,34.19
2023-05-18T09:39:29.444Z,34.21
2023-05-18T09:40:29.416Z,34.17
2023-05-18T09:41:29.425Z,34.19
2023-05-18T09:42:29.401Z,34.17
2023-05-18T09:43:29.405Z,34.12
2023-05-18T09:44:29.384Z,34.15
2023-05-18T09:45:29.498Z,34.12
2023-05-18T09:46:29.399Z,34.11
2023-05-18T09:47:29.394Z,34.10
2023-05-18T09:48:29.360Z,34.20
2023-05-18T09:49:29.366Z,34.15
2023-05-18T09:50:29.342Z,34.13
2023-05-18T09:51:29.336Z,34.15
2023-05-18T09:52:29.334Z,34.17
2023-05-18T09:53:29.334Z,34.19
2023-05-18T09:54:29.315Z,34.10
2023-05-18T09:55:29.462Z,34.16
2023-05-18T09:56:29.310Z,34.16
2023-05-18T09:57:29.296Z,34.12
2023-05-18T09:58:29.305Z,34.12
2023-05-18T09:59:29.289Z,34.19
2023-05-18T10:00:29.301Z,34.15
2023-05-18T10:01:29.330Z,34.13
2023-05-18T10:02:29.285Z,34.13
2023-05-18T10:03:29.265Z,34.13
2023-05-18T10:04:29.301Z,34.16
2023-05-18T10:05:29.490Z,34.12
2023-05-18T10:06:29.242Z,34.17
2023-05-18T10:07:29.272Z,34.17
2023-05-18T10:08:29.221Z,34.11
2023-05-18T10:09:29.232Z,34.12
2023-05-18T10:10:29.339Z,34.15
2023-05-18T10:11:29.212Z,34.12
2023-05-18T10:12:29.227Z,34.10
2023-05-18T10:13:29.199Z,34.11
2023-05-18T10:14:31.256Z,34.12
2023-05-18T10:15:29.300Z,34.15
2023-05-18T10:16:29.185Z,34.14
2023-05-18T10:17:29.254Z,34.15
2023-05-18T10:18:29.225Z,34.19
2023-05-18T10:19:29.201Z,34.13
2023-05-18T10:20:29.366Z,34.20
2023-05-18T10:21:29.162Z,34.12
2023-05-18T10:22:29.175Z,34.12
2023-05-18T10:23:29.144Z,34.15
2023-05-18T10:24:29.154Z,34.13
2023-05-18T10:25:29.136Z,34.13
2023-05-18T10:26:29.106Z,34.20
2023-05-18T10:27:29.129Z,34.12
2023-05-18T10:28:29.139Z,34.13
2023-05-18T10:29:29.121Z,34.14
2023-05-18T10:30:29.442Z,34.17
2023-05-18T10:31:29.165Z,34.11
2023-05-18T10:32:29.180Z,34.12
2023-05-18T10:33:30.157Z,34.11
2023-05-18T10:34:29.153Z,34.12
2023-05-18T10:35:29.172Z,34.12
2023-05-18T10:36:29.175Z,34.10
2023-05-18T10:37:29.192Z,34.13
2023-05-18T10:38:29.202Z,34.10
2023-05-18T10:39:29.204Z,34.10
2023-05-18T10:40:29.465Z,34.10
2023-05-18T10:41:29.218Z,34.04
2023-05-18T10:42:29.239Z,34.04
2023-05-18T10:43:29.236Z,34.08
2023-05-18T10:44:29.223Z,34.07
2023-05-18T10:45:29.240Z,34.03
2023-05-18T10:46:29.297Z,34.04
2023-05-18T10:47:29.437Z,34.11
2023-05-18T10:48:29.282Z,34.08
2023-05-18T10:49:29.271Z,34.08
2023-05-18T10:50:29.378Z,34.11
2023-05-18T10:51:29.324Z,34.04
2023-05-18T10:52:29.279Z,34.05
2023-05-18T10:53:29.306Z,34.06
2023-05-18T10:54:29.307Z,34.08
2023-05-18T10:55:29.330Z,34.12
2023-05-18T10:56:29.300Z,34.16
2023-05-18T10:57:29.316Z,34.08
2023-05-18T10:58:29.332Z,34.10
2023-05-18T10:59:29.333Z,34.10
2023-05-18T11:00:29.505Z,34.05
2023-05-18T11:01:29.379Z,34.07
2023-05-18T11:02:29.404Z,34.06
2023-05-18T11:03:29.372Z,34.11
2023-05-18T11:04:29.398Z,34.04
2023-05-18T11:05:29.395Z,34.08
2023-05-18T11:06:29.389Z,34.07
2023-05-18T11:07:29.410Z,34.08
2023-05-18T11:08:29.411Z,34.07
2023-05-18T11:09:29.478Z,34.11
2023-05-18T11:10:29.578Z,34.08
2023-05-18T11:11:29.446Z,34.06
2023-05-18T11:12:29.458Z,34.10
2023-05-18T11:13:29.541Z,34.07
2023-05-18T11:14:29.482Z,34.08
2023-05-18T11:15:29.480Z,34.11
2023-05-18T11:16:30.590Z,34.10
2023-05-18T11:17:29.551Z,34.06
2023-05-18T11:18:29.500Z,34.10
2023-05-18T11:19:29.508Z,34.10
2023-05-18T11:20:29.788Z,34.09
2023-05-18T11:21:29.576Z,34.07
2023-05-18T11:22:29.958Z,34.12
2023-05-18T11:23:29.556Z,34.10
2023-05-18T11:24:29.558Z,34.12
2023-05-18T11:25:29.578Z,34.07
2023-05-18T11:26:29.584Z,34.11
2023-05-18T11:27:29.570Z,34.12
2023-05-18T11:28:29.541Z,34.10
2023-05-18T11:29:29.592Z,34.12
2023-05-18T11:30:29.577Z,34.12
2023-05-18T11:31:29.588Z,34.10
2023-05-18T11:32:30.791Z,34.06
2023-05-18T11:33:29.626Z,34.09
2023-05-18T11:34:29.592Z,34.06
2023-05-18T11:35:29.602Z,34.11
2023-05-18T11:36:29.585Z,34.04
2023-05-18T11:37:29.595Z,34.10
2023-05-18T11:38:29.624Z,34.07
2023-05-18T11:39:29.616Z,34.08
2023-05-18T11:40:29.711Z,34.08
2023-05-18T11:41:29.599Z,34.06
2023-05-18T11:42:29.672Z,34.10
2023-05-18T11:43:29.605Z,34.09
2023-05-18T11:44:29.624Z,34.06
2023-05-18T11:45:29.602Z,33.99
2023-05-18T11:46:29.607Z,34.03
2023-05-18T11:47:29.671Z,34.02
2023-05-18T11:48:29.774Z,34.03
2023-05-18T11:49:29.752Z,34.01
2023-05-18T11:50:29.947Z,33.97
2023-05-18T11:51:29.652Z,33.96
2023-05-18T11:52:29.664Z,33.99
2023-05-18T11:53:29.652Z,33.98
2023-05-18T11:54:29.663Z,34.00
2023-05-18T11:55:29.683Z,33.96
2023-05-18T11:56:29.679Z,33.97
2023-05-18T11:57:29.704Z,33.96
2023-05-18T11:58:29.691Z,33.94
2023-05-18T11:59:29.698Z,33.96
2023-05-18T12:00:29.860Z,33.94
2023-05-18T12:01:29.704Z,33.96
2023-05-18T12:02:29.770Z,34.01
2023-05-18T12:03:29.774Z,33.94
2023-05-18T12:04:29.756Z,34.00
2023-05-18T12:05:29.748Z,33.95
2023-05-18T12:06:29.757Z,33.95
2023-05-18T12:07:29.761Z,33.96
2023-05-18T12:08:29.767Z,33.96
2023-05-18T12:09:29.762Z,33.96
2023-05-18T12:10:30.146Z,33.94
2023-05-18T12:11:29.785Z,33.97
2023-05-18T12:12:29.801Z,33.98
2023-05-18T12:13:29.759Z,33.95
2023-05-18T12:14:29.761Z,33.97
2023-05-18T12:15:29.772Z,33.96
2023-05-18T12:16:29.793Z,33.92
2023-05-18T12:17:29.815Z,33.95
2023-05-18T12:18:29.807Z,33.94
2023-05-18T12:19:29.838Z,33.92
2023-05-18T12:20:29.885Z,33.93
2023-05-18T12:21:29.781Z,33.97
2023-05-18T12:22:29.793Z,33.94
2023-05-18T12:23:29.785Z,33.93
2023-05-18T12:24:29.756Z,33.95
2023-05-18T12:25:30.034Z,33.96
2023-05-18T12:26:29.781Z,33.94
2023-05-18T12:27:29.762Z,33.95
2023-05-18T12:28:29.781Z,33.94
2023-05-18T12:29:29.762Z,33.91
2023-05-18T12:30:29.759Z,34.00
2023-05-18T12:31:29.805Z,33.94
2023-05-18T12:32:29.760Z,33.96
2023-05-18T12:33:29.750Z,33.93
2023-05-18T12:34:29.770Z,33.94
2023-05-18T12:35:29.991Z,33.91
2023-05-18T12:36:29.769Z,33.91
2023-05-18T12:37:37.913Z,33.94
2023-05-18T12:38:30.743Z,33.95
2023-05-18T12:39:29.731Z,33.95
2023-05-18T12:40:29.744Z,33.89
2023-05-18T12:41:29.726Z,33.95
2023-05-18T12:42:29.729Z,33.94
2023-05-18T12:43:29.696Z,33.94
2023-05-18T12:44:29.686Z,33.94
2023-05-18T12:45:29.777Z,33.90
2023-05-18T12:46:29.742Z,33.92
2023-05-18T12:47:29.746Z,33.92
2023-05-18T12:48:29.664Z,33.92
2023-05-18T12:49:29.664Z,33.91
2023-05-18T12:50:29.676Z,33.86
2023-05-18T12:51:29.660Z,33.90
2023-05-18T12:52:29.657Z,33.90
2023-05-18T12:53:29.635Z,33.94